createdAt,value
2022-11-20T00:00:07.064Z,7.80
2022-11-20T00:02:33.356Z,9.10
2022-11-20T00:04:59.696Z,8.85
2022-11-20T00:07:26.060Z,8.02
2022-11-20T00:09:52.428Z,8.93
2022-11-20T00:12:18.835Z,7.72
2022-11-20T00:14:45.181Z,9.98
2022-11-20T00:17:12.252Z,7.70
2022-11-20T00:19:38.615Z,8.40
2022-11-20T00:22:04.899Z,9.02
2022-11-20T00:24:31.183Z,7.05
2022-11-20T00:26:57.513Z,6.60
2022-11-20T00:29:23.855Z,8.05
2022-11-20T00:31:50.202Z,8.40
2022-11-20T00:34:16.499Z,7.75
2022-11-20T00:36:42.821Z,9.23
2022-11-20T00:39:09.196Z,8.55
2022-11-20T00:41:35.562Z,9.23
2022-11-20T00:44:01.982Z,9.35
2022-11-20T00:46:29.059Z,9.55
2022-11-20T00:48:55.773Z,8.35
2022-11-20T00:51:25.136Z,9.02
2022-11-20T00:53:51.951Z,8.25
2022-11-20T00:56:19.928Z,7.70
2022-11-20T00:58:48.589Z,8.30
2022-11-20T01:01:25.232Z,8.02
2022-11-20T01:03:53.205Z,8.23
2022-11-20T01:06:22.093Z,8.98
2022-11-20T01:08:49.714Z,8.88
2022-11-20T01:11:19.175Z,8.57
2022-11-20T01:13:47.041Z,8.50
2022-11-20T01:16:24.572Z,8.13
2022-11-20T01:18:53.977Z,8.43
2022-11-20T01:21:35.328Z,8.75
2022-11-20T01:24:03.305Z,8.35
2022-11-20T01:26:32.238Z,10.25
2022-11-20T01:28:59.764Z,8.70
2022-11-20T01:31:37.947Z,9.25
2022-11-20T01:34:13.879Z,8.75
2022-11-20T01:36:41.925Z,10.43
2022-11-20T01:39:17.576Z,10.23
2022-11-20T01:41:45.147Z,10.45
2022-11-20T01:44:13.690Z,9.00
2022-11-20T01:46:43.376Z,9.05
2022-11-20T01:49:21.295Z,9.40
2022-11-20T01:51:56.875Z,8.52
2022-11-20T01:54:30.741Z,9.38
2022-11-20T01:56:59.972Z,7.88
2022-11-20T01:59:29.150Z,8.98
2022-11-20T02:01:56.191Z,9.82
2022-11-20T02:04:24.020Z,8.90
2022-11-20T02:06:56.237Z,8.70
2022-11-20T02:09:23.086Z,8.27
2022-11-20T02:11:50.217Z,10.27
2022-11-20T02:14:16.596Z,8.52
2022-11-20T02:16:47.338Z,7.22
2022-11-20T02:19:24.270Z,7.68
2022-11-20T02:22:14.076Z,8.85
2022-11-20T02:24:42.519Z,8.50
2022-11-20T02:27:13.100Z,8.35
2022-11-20T02:29:51.271Z,8.82
2022-11-20T02:32:26.572Z,9.23
2022-11-20T02:34:52.995Z,8.48
2022-11-20T02:37:20.935Z,7.53
2022-11-20T02:39:50.049Z,9.27
2022-11-20T02:42:16.629Z,7.40
2022-11-20T02:44:42.900Z,7.60
2022-11-20T02:47:09.535Z,9.02
2022-11-20T02:49:35.864Z,10.32
2022-11-20T02:52:02.288Z,9.38
2022-11-20T02:54:28.655Z,9.10
2022-11-20T02:56:54.994Z,9.85
2022-11-20T02:59:21.613Z,9.32
2022-11-20T03:01:48.108Z,8.50
2022-11-20T03:04:14.471Z,8.18
2022-11-20T03:06:40.816Z,8.55
2022-11-20T03:09:07.230Z,8.60
2022-11-20T03:11:33.506Z,9.05
2022-11-20T03:14:03.670Z,8.93
2022-11-20T03:16:31.624Z,8.23
2022-11-20T03:18:58.005Z,8.80
2022-11-20T03:21:24.347Z,8.43
2022-11-20T03:23:50.747Z,7.93
2022-11-20T03:26:18.266Z,7.85
2022-11-20T03:28:55.853Z,8.10
2022-11-20T03:31:25.256Z,8.05
2022-11-20T03:33:52.251Z,8.45
2022-11-20T03:36:20.369Z,7.70
2022-11-20T03:38:47.374Z,8.60
2022-11-20T03:41:16.146Z,8.52
2022-11-20T03:43:42.607Z,8.52
2022-11-20T03:46:09.469Z,7.88
2022-11-20T03:48:35.828Z,8.68
2022-11-20T03:51:19.329Z,9.18
2022-11-20T03:53:47.742Z,7.57
2022-11-20T03:56:15.981Z,7.53
2022-11-20T03:58:42.362Z,8.23
2022-11-20T04:01:11.088Z,9.05
2022-11-20T04:03:38.753Z,8.60
2022-11-20T04:06:10.983Z,8.77
2022-11-20T04:08:37.649Z,9.57
2022-11-20T04:13:41.193Z,7.85
2022-11-20T04:16:08.988Z,7.65
2022-11-20T04:18:35.856Z,8.27
2022-11-20T04:21:03.046Z,7.75
2022-11-20T04:23:29.741Z,7.85
2022-11-20T04:28:22.394Z,7.88
2022-11-20T04:30:48.729Z,8.05
2022-11-20T04:33:15.086Z,8.35
2022-11-20T04:35:41.432Z,8.38
2022-11-20T04:38:07.977Z,8.70
2022-11-20T04:40:34.314Z,8.50
2022-11-20T04:43:00.753Z,9.23
2022-11-20T04:45:27.078Z,8.45
2022-11-20T04:47:53.640Z,8.48
2022-11-20T04:50:19.958Z,8.07
2022-11-20T04:52:46.330Z,8.75
2022-11-20T04:55:12.651Z,9.52
2022-11-20T04:57:38.978Z,8.35
2022-11-20T05:00:05.972Z,8.18
2022-11-20T05:02:32.451Z,8.45
2022-11-20T05:04:58.748Z,8.45
2022-11-20T05:07:25.163Z,9.45
2022-11-20T05:09:51.569Z,8.02
2022-11-20T05:12:17.868Z,8.25
2022-11-20T05:14:44.185Z,8.80
2022-11-20T05:17:12.026Z,10.27
2022-11-20T05:19:38.733Z,9.60
2022-11-20T05:24:31.872Z,8.35
2022-11-20T05:26:58.174Z,9.15
2022-11-20T05:29:24.452Z,7.97
2022-11-20T05:31:50.761Z,9.70
2022-11-20T05:34:17.069Z,9.52
2022-11-20T05:36:43.431Z,9.45
2022-11-20T05:39:09.779Z,8.57
2022-11-20T05:41:36.139Z,8.65
2022-11-20T05:44:02.453Z,8.35
2022-11-20T05:46:29.600Z,9.25
2022-11-20T05:48:57.187Z,8.85
2022-11-20T05:51:23.778Z,9.20
2022-11-20T05:53:50.185Z,9.00
2022-11-20T05:56:19.333Z,7.15
2022-11-20T05:58:46.161Z,8.68
2022-11-20T06:01:18.830Z,9.45
2022-11-20T06:03:46.275Z,8.70
2022-11-20T06:06:13.015Z,8.27
2022-11-20T06:08:39.344Z,9.50
2022-11-20T06:11:10.491Z,9.35
2022-11-20T06:13:41.817Z,7.88
2022-11-20T06:16:08.824Z,7.78
2022-11-20T06:18:35.145Z,8.30
2022-11-20T06:21:03.483Z,8.23
2022-11-20T06:23:31.753Z,8.07
2022-11-20T06:26:02.085Z,8.13
2022-11-20T06:28:28.409Z,8.23
2022-11-20T06:30:54.756Z,9.13
2022-11-20T06:33:21.114Z,7.80
2022-11-20T06:35:47.402Z,8.93
2022-11-20T06:38:13.711Z,8.07
2022-11-20T06:40:43.307Z,8.02
2022-11-20T06:43:10.745Z,8.68
2022-11-20T06:45:37.518Z,8.57
2022-11-20T06:48:04.377Z,7.43
2022-11-20T06:50:30.725Z,7.60
2022-11-20T06:52:57.025Z,7.95
2022-11-20T06:55:23.338Z,7.50
2022-11-20T06:57:55.749Z,8.35
2022-11-20T07:00:22.315Z,7.50
2022-11-20T07:02:48.679Z,6.85
2022-11-20T07:05:15.173Z,7.70
2022-11-20T07:07:41.570Z,8.32
2022-11-20T07:10:08.405Z,7.32
2022-11-20T07:12:34.728Z,6.07
2022-11-20T07:15:01.041Z,7.72
2022-11-20T07:17:27.353Z,7.88
2022-11-20T07:19:53.693Z,6.78
2022-11-20T07:22:20.010Z,7.22
2022-11-20T07:24:46.364Z,6.47
2022-11-20T07:27:12.748Z,7.50
2022-11-20T07:29:39.078Z,8.40
2022-11-20T07:32:05.417Z,7.80
2022-11-20T07:34:31.789Z,6.63
2022-11-20T07:36:58.083Z,8.82
2022-11-20T07:39:24.408Z,8.45
2022-11-20T07:41:50.772Z,9.27
2022-11-20T07:44:17.103Z,9.07
2022-11-20T07:46:43.381Z,9.00
2022-11-20T07:49:09.719Z,9.15
2022-11-20T07:51:36.011Z,8.90
2022-11-20T07:54:02.446Z,8.45
2022-11-20T07:56:28.797Z,9.15
2022-11-20T07:58:55.223Z,10.63
2022-11-20T08:01:21.599Z,10.32
2022-11-20T08:03:48.004Z,10.40
2022-11-20T08:06:14.362Z,10.10
2022-11-20T08:08:42.951Z,11.02
2022-11-20T08:11:09.504Z,10.93
2022-11-20T08:13:35.791Z,11.30
2022-11-20T08:16:02.090Z,10.13
2022-11-20T08:18:31.587Z,10.85
2022-11-20T08:20:58.417Z,11.52
2022-11-20T08:23:24.721Z,10.13
2022-11-20T08:25:51.416Z,8.82
2022-11-20T08:28:21.409Z,11.70
2022-11-20T08:30:48.416Z,10.40
2022-11-20T08:33:14.954Z,11.75
2022-11-20T08:35:41.254Z,11.52
2022-11-20T08:38:07.969Z,11.27
2022-11-20T08:40:34.704Z,11.95
2022-11-20T08:43:01.078Z,10.20
2022-11-20T08:45:32.364Z,10.75
2022-11-20T08:48:04.588Z,10.23
2022-11-20T08:50:31.535Z,11.65
2022-11-20T08:53:06.099Z,11.57
2022-11-20T08:55:32.995Z,11.90
2022-11-20T08:57:59.371Z,10.90
2022-11-20T09:00:25.685Z,10.63
2022-11-20T09:05:18.459Z,10.55
2022-11-20T09:07:44.776Z,11.02
2022-11-20T09:10:23.743Z,10.63
2022-11-20T09:12:50.941Z,10.40
2022-11-20T09:15:17.419Z,10.80
2022-11-20T09:17:50.908Z,10.55
2022-11-20T09:20:17.220Z,10.93
2022-11-20T09:22:43.532Z,10.95
2022-11-20T09:25:09.919Z,11.98
2022-11-20T09:27:36.291Z,11.63
2022-11-20T09:30:03.556Z,12.10
2022-11-20T09:32:29.864Z,12.27
2022-11-20T09:34:56.182Z,12.77
2022-11-20T09:37:22.609Z,11.52
2022-11-20T09:39:48.939Z,12.10
2022-11-20T09:42:51.286Z,12.35
2022-11-20T09:45:49.139Z,12.63
2022-11-20T09:48:28.276Z,13.52
2022-11-20T09:51:06.696Z,13.27
2022-11-20T09:54:02.491Z,13.40
2022-11-20T09:56:29.760Z,12.10
2022-11-20T09:59:00.491Z,11.93
2022-11-20T10:01:33.614Z,11.80
2022-11-20T10:04:04.500Z,11.23
2022-11-20T10:06:40.519Z,12.15
2022-11-20T10:09:12.865Z,12.18
2022-11-20T10:12:10.042Z,10.75
2022-11-20T10:14:51.260Z,13.38
2022-11-20T10:17:20.532Z,13.05
2022-11-20T10:20:17.136Z,12.18
2022-11-20T10:26:01.227Z,11.52
2022-11-20T10:28:33.550Z,11.95
2022-11-20T10:31:12.481Z,11.20
2022-11-20T10:34:10.580Z,12.63
2022-11-20T10:36:41.938Z,12.20
2022-11-20T10:39:21.205Z,12.10
2022-11-20T10:41:52.671Z,12.77
2022-11-20T10:44:22.555Z,10.90
2022-11-20T10:47:08.025Z,12.32
2022-11-20T10:49:35.329Z,11.25
2022-11-20T10:52:29.370Z,12.23
2022-11-20T10:55:03.547Z,11.18
2022-11-20T10:58:04.836Z,12.52
2022-11-20T11:00:34.520Z,11.63
2022-11-20T11:03:00.862Z,12.60
2022-11-20T11:05:54.928Z,10.93
2022-11-20T11:08:22.411Z,11.70
2022-11-20T11:11:00.134Z,11.18
2022-11-20T11:13:28.528Z,11.15
2022-11-20T11:15:55.706Z,11.38
2022-11-20T11:18:33.245Z,12.23
2022-11-20T11:21:05.110Z,11.45
2022-11-20T11:23:39.921Z,10.90
2022-11-20T11:26:27.835Z,11.27
2022-11-20T11:29:02.174Z,10.77
2022-11-20T11:31:37.496Z,11.07
2022-11-20T11:34:05.953Z,11.10
2022-11-20T11:36:34.321Z,11.82
2022-11-20T11:39:02.190Z,11.07
2022-11-20T11:41:34.729Z,11.10
2022-11-20T11:44:25.855Z,11.85
2022-11-20T11:46:57.371Z,12.30
2022-11-20T11:49:25.147Z,11.45
2022-11-20T11:52:13.093Z,10.60
2022-11-20T11:55:10.109Z,11.45
2022-11-20T11:57:37.876Z,10.63
2022-11-20T12:02:47.313Z,10.07
2022-11-20T12:05:54.283Z,10.40
2022-11-20T12:08:33.311Z,10.52
2022-11-20T12:11:33.872Z,10.23
2022-11-20T12:14:17.938Z,10.73
2022-11-20T12:16:44.326Z,10.50
2022-11-20T12:21:55.180Z,8.52
2022-11-20T12:24:51.341Z,9.85
2022-11-20T12:27:40.976Z,8.13
2022-11-20T12:30:18.395Z,9.95
2022-11-20T12:33:06.224Z,9.70
2022-11-20T12:35:54.457Z,10.13
2022-11-20T12:38:55.652Z,9.55
2022-11-20T12:42:02.151Z,9.30
2022-11-20T12:45:18.579Z,10.32
2022-11-20T12:47:59.755Z,9.60
2022-11-20T12:51:14.675Z,10.05
2022-11-20T12:54:15.762Z,9.70
2022-11-20T12:57:27.115Z,10.20
2022-11-20T13:00:08.108Z,11.10
2022-11-20T13:02:43.849Z,10.52
2022-11-20T13:05:25.322Z,10.25
2022-11-20T13:07:54.434Z,10.98
2022-11-20T13:10:48.706Z,11.00
2022-11-20T13:13:23.608Z,11.50
2022-11-20T13:16:07.866Z,11.40
2022-11-20T13:18:39.877Z,11.32
2022-11-20T13:21:22.046Z,11.20
2022-11-20T13:23:48.937Z,12.43
2022-11-20T13:26:20.901Z,12.27
2022-11-20T13:28:49.284Z,12.10
2022-11-20T13:31:35.184Z,11.88
2022-11-20T13:34:05.779Z,11.98
2022-11-20T13:36:32.281Z,12.52
2022-11-20T13:38:59.625Z,10.73
2022-11-20T13:41:32.258Z,10.57
2022-11-20T13:44:38.526Z,10.85
2022-11-20T13:47:20.800Z,11.13
2022-11-20T13:49:47.221Z,10.60
2022-11-20T13:55:22.154Z,9.35
2022-11-20T13:57:57.371Z,11.40
2022-11-20T14:00:25.849Z,10.60
2022-11-20T14:03:07.292Z,9.52
2022-11-20T14:05:39.344Z,8.75
2022-11-20T14:08:08.142Z,8.60
2022-11-20T14:10:34.548Z,9.45
2022-11-20T14:15:41.802Z,9.88
2022-11-20T14:18:22.006Z,9.70
2022-11-20T14:20:48.397Z,9.93
2022-11-20T14:25:56.511Z,9.32
2022-11-20T14:28:28.203Z,10.25
2022-11-20T14:30:55.647Z,10.57
2022-11-20T14:33:22.563Z,10.98
2022-11-20T14:35:52.252Z,10.65
2022-11-20T14:38:24.852Z,10.30
2022-11-20T14:40:51.456Z,10.32
2022-11-20T14:43:19.331Z,12.85
2022-11-20T14:45:56.621Z,11.18
2022-11-20T14:48:30.958Z,11.35
2022-11-20T14:50:57.528Z,12.13
2022-11-20T14:53:25.912Z,12.25
2022-11-20T14:56:02.968Z,10.07
2022-11-20T14:58:31.687Z,12.20
2022-11-20T15:01:06.886Z,10.48
2022-11-20T15:03:38.623Z,12.02
2022-11-20T15:06:12.655Z,14.18
2022-11-20T15:08:39.038Z,14.40
2022-11-20T15:13:43.661Z,14.05
2022-11-20T15:18:44.270Z,12.68
2022-11-20T15:21:19.281Z,12.85
2022-11-20T15:23:45.866Z,13.82
2022-11-20T15:26:19.481Z,14.82
2022-11-20T15:28:48.182Z,13.63
2022-11-20T15:31:18.659Z,13.52
2022-11-20T15:33:45.597Z,13.60
2022-11-20T15:36:11.994Z,13.18
2022-11-20T15:41:05.174Z,12.23
2022-11-20T15:43:31.577Z,10.77
2022-11-20T15:48:30.129Z,11.80
2022-11-20T15:51:04.611Z,11.45
2022-11-20T15:53:30.994Z,12.40
2022-11-20T15:58:23.792Z,16.13
2022-11-20T16:00:50.337Z,15.45
2022-11-20T16:03:18.462Z,15.40
2022-11-20T16:05:45.484Z,14.93
2022-11-20T16:08:12.191Z,15.75
2022-11-20T16:10:39.378Z,13.23
2022-11-20T16:13:15.036Z,14.13
2022-11-20T16:15:41.477Z,16.23
2022-11-20T16:20:35.948Z,15.43
2022-11-20T16:25:29.013Z,14.68
2022-11-20T16:27:55.514Z,14.55
2022-11-20T16:30:21.991Z,17.73
2022-11-20T16:32:48.414Z,14.48
2022-11-20T16:37:41.845Z,13.45
2022-11-20T16:42:35.602Z,16.40
2022-11-20T16:45:01.989Z,18.40
2022-11-20T16:49:54.659Z,11.88
2022-11-20T16:54:47.291Z,15.18
2022-11-20T16:59:39.945Z,18.17
2022-11-20T17:04:32.889Z,13.32
2022-11-20T17:09:32.943Z,11.45
2022-11-20T17:11:59.273Z,15.05
2022-11-20T17:16:52.392Z,11.50
2022-11-20T17:21:47.289Z,12.15
2022-11-20T17:26:41.245Z,13.05
2022-11-20T17:29:16.850Z,8.18
2022-11-20T17:31:46.342Z,12.23
2022-11-20T17:34:14.446Z,12.70
2022-11-20T17:36:45.051Z,11.00
2022-11-20T17:39:16.631Z,10.60
2022-11-20T17:41:43.434Z,14.55
2022-11-20T17:44:11.190Z,14.90
2022-11-20T17:46:37.900Z,14.75
2022-11-20T17:49:04.432Z,10.93
2022-11-20T17:51:32.906Z,9.93
2022-11-20T17:54:01.689Z,15.27
2022-11-20T17:56:32.744Z,11.48
2022-11-20T17:58:59.886Z,15.85
2022-11-20T18:01:26.649Z,17.13
2022-11-20T18:03:53.012Z,12.63
2022-11-20T18:06:22.422Z,17.25
2022-11-20T18:08:49.887Z,14.10
2022-11-20T18:11:22.554Z,15.80
2022-11-20T18:13:51.757Z,15.27
2022-11-20T18:16:18.119Z,17.15
2022-11-20T18:18:44.430Z,14.95
2022-11-20T18:21:10.774Z,13.45
2022-11-20T18:23:37.145Z,12.75
2022-11-20T18:26:03.507Z,18.15
2022-11-20T18:28:29.860Z,13.85
2022-11-20T18:30:56.215Z,17.45
2022-11-20T18:35:54.825Z,15.23
2022-11-20T18:40:47.749Z,14.13
2022-11-20T18:43:14.123Z,15.68
2022-11-20T18:48:06.764Z,13.43
2022-11-20T18:50:33.131Z,16.75
2022-11-20T18:55:25.823Z,14.77
2022-11-20T19:00:18.483Z,13.18
2022-11-20T19:05:12.834Z,15.65
2022-11-20T19:07:39.258Z,15.48
2022-11-20T19:10:06.110Z,13.70
2022-11-20T19:12:32.539Z,12.85
2022-11-20T19:17:25.309Z,14.98
2022-11-20T19:19:52.772Z,14.00
2022-11-20T19:22:19.125Z,16.92
2022-11-20T19:24:45.514Z,17.65
2022-11-20T19:29:38.501Z,14.10
2022-11-20T19:32:05.012Z,17.48
2022-11-20T19:34:34.491Z,13.98
2022-11-20T19:37:00.871Z,16.33
2022-11-20T19:41:53.828Z,12.10
2022-11-20T19:46:46.515Z,11.82
2022-11-20T19:51:48.378Z,15.68
2022-11-20T19:54:15.495Z,14.45
2022-11-20T19:56:41.908Z,14.50
2022-11-20T20:01:34.967Z,14.30
2022-11-20T20:04:01.637Z,14.40
2022-11-20T20:06:28.415Z,13.23
2022-11-20T20:09:08.892Z,14.02
2022-11-20T20:11:36.222Z,5.63
2022-11-20T20:14:04.290Z,13.98
2022-11-20T20:16:30.885Z,13.57
2022-11-20T20:18:59.077Z,14.23
2022-11-20T20:21:25.436Z,11.73
2022-11-20T20:23:53.795Z,13.05
2022-11-20T20:26:20.993Z,11.60
2022-11-20T20:28:47.728Z,12.85
2022-11-20T20:31:16.786Z,12.35
2022-11-20T20:33:43.581Z,12.15
2022-11-20T20:36:14.322Z,12.27
2022-11-20T20:38:41.145Z,11.35
2022-11-20T20:41:07.703Z,13.93
2022-11-20T20:43:34.092Z,12.02
2022-11-20T20:48:26.864Z,12.18
2022-11-20T20:50:54.741Z,13.30
2022-11-20T20:53:21.147Z,11.95
2022-11-20T20:55:57.857Z,13.70
2022-11-20T20:58:25.125Z,14.02
2022-11-20T21:00:52.170Z,13.27
2022-11-20T21:03:20.740Z,13.20
2022-11-20T21:05:55.880Z,14.48
2022-11-20T21:08:22.294Z,13.70
2022-11-20T21:13:15.797Z,14.07
2022-11-20T21:15:42.894Z,13.05
2022-11-20T21:18:09.304Z,14.13
2022-11-20T21:23:08.403Z,11.88
2022-11-20T21:25:37.470Z,14.70
2022-11-20T21:28:03.899Z,14.60
2022-11-20T21:32:56.595Z,12.73
2022-11-20T21:37:49.339Z,13.05
2022-11-20T21:42:42.213Z,13.57
2022-11-20T21:47:35.292Z,13.60
2022-11-20T21:52:28.065Z,13.63
2022-11-20T21:54:54.445Z,13.40
2022-11-20T21:57:23.527Z,14.45
2022-11-20T21:59:49.916Z,13.27
2022-11-20T22:04:42.572Z,12.35
2022-11-20T22:07:09.030Z,13.18
2022-11-20T22:09:35.411Z,13.35
2022-11-20T22:12:01.770Z,14.35
2022-11-20T22:14:28.534Z,13.38
2022-11-20T22:16:55.181Z,13.55
2022-11-20T22:19:22.956Z,14.02
2022-11-20T22:21:49.576Z,12.65
2022-11-20T22:24:18.401Z,13.68
2022-11-20T22:26:45.022Z,12.18
2022-11-20T22:29:15.924Z,12.55
2022-11-20T22:31:42.636Z,12.82
2022-11-20T22:34:11.745Z,13.02
2022-11-20T22:36:38.908Z,14.00
2022-11-20T22:39:05.674Z,12.20
2022-11-20T22:41:32.692Z,13.25
2022-11-20T22:44:01.456Z,12.27
2022-11-20T22:46:29.809Z,12.60
2022-11-20T22:49:01.480Z,12.73
2022-11-20T22:51:30.786Z,12.32
2022-11-20T22:53:57.131Z,11.00
2022-11-20T22:56:24.064Z,12.52
2022-11-20T22:58:52.272Z,12.48
2022-11-20T23:01:21.453Z,12.95
2022-11-20T23:03:50.037Z,12.52
2022-11-20T23:06:18.189Z,13.27
2022-11-20T23:08:45.306Z,12.30
2022-11-20T23:11:17.382Z,12.20
2022-11-20T23:13:44.849Z,12.23
2022-11-20T23:16:16.443Z,12.07
2022-11-20T23:18:43.871Z,12.38
2022-11-20T23:21:14.157Z,13.13
2022-11-20T23:23:40.664Z,12.15
2022-11-20T23:26:15.438Z,11.70
2022-11-20T23:28:42.467Z,12.23
2022-11-20T23:31:09.937Z,11.90
2022-11-20T23:33:40.744Z,12.55
2022-11-20T23:36:07.632Z,11.90
2022-11-20T23:38:34.475Z,11.20
2022-11-20T23:41:01.321Z,10.48
2022-11-20T23:43:27.752Z,10.73
2022-11-20T23:48:26.085Z,11.02
2022-11-20T23:50:52.743Z,10.10
2022-11-20T23:53:19.786Z,11.73
2022-11-20T23:55:47.712Z,11.95
2022-11-20T23:58:14.974Z,12.32
